Weather reports worldwide

Advertisment
Madrid, Spain (8222): temperature & dewpoint: 14.11.2017 22:00:00 - 20.11.2017 22:00:00 (CET)Madrid, Spain (8222): wind speed & gusts: 14.11.2017 22:00:00 - 20.11.2017 22:00:00 (CET)Madrid, Spain (8222): wind direction: 14.11.2017 22:00:00 - 20.11.2017 22:00:00 (CET)Madrid, Spain (8222): reduced air pressure: 14.11.2017 22:00:00 - 20.11.2017 22:00:00 (CET)Madrid, Spain (8222): precipitation: 14.11.2017 22:00:00 - 20.11.2017 22:00:00 (CET)
Date & Time tt [°C] td [°C] ff [km/h] ff [kn] fx [km/h] fx [kn] dd ppp [hPa] rr [mm]
20.11.2017 22:00:00 - - - - - - - - -
20.11.2017 21:00:00 10,7 2,3 0 0 2 1 E 1022,9 0,0
20.11.2017 20:00:00 11,3 2,7 0 0 3 2 ESE 1022,3 0,0
20.11.2017 19:00:00 11,9 2,3 1 0 3 2 SSE 1021,9 -
20.11.2017 18:00:00 13,2 3,0 1 1 5 3 SE 1021,1 0,0
20.11.2017 17:00:00 15,0 3,2 2 1 7 4 SE 1020,6 0,0
20.11.2017 16:00:00 15,4 3,6 2 1 7 4 SE 1020,7 0,0
20.11.2017 15:00:00 14,9 3,4 1 1 10 5 S 1021,4 0,0
20.11.2017 14:00:00 14,2 3,0 2 1 7 4 WSW 1022,0 0,0
20.11.2017 13:00:00 12,7 2,5 2 1 7 4 SSW 1023,0 -
20.11.2017 12:00:00 11,4 2,1 1 1 6 4 SSE 1023,9 0,0
20.11.2017 11:00:00 9,9 0,9 1 1 5 3 ESE 1024,4 0,0
20.11.2017 10:00:00 7,6 -0,5 2 1 6 3 ENE 1024,6 0,0
20.11.2017 09:00:00 4,7 -0,3 0 0 1 1 SE 1025,2 0,0
20.11.2017 08:00:00 4,7 -1,4 0 0 7 4 N 1024,8 0,0
20.11.2017 07:00:00 5,2 -1,4 1 1 10 5 NNE 1024,4 -
20.11.2017 06:00:00 5,8 -1,4 1 0 6 3 ENE 1024,1 0,0
20.11.2017 05:00:00 5,9 -0,7 1 0 5 3 NNE 1023,6 0,0
20.11.2017 04:00:00 6,4 -0,3 1 1 9 5 NE 1023,3 0,0
20.11.2017 03:00:00 7,6 0,2 1 1 10 5 NE 1023,2 0,0
20.11.2017 02:00:00 8,2 0,4 0 0 10 6 NE 1023,1 0,0
20.11.2017 01:00:00 9,2 1,1 6 3 16 8 NE 1022,9 -
20.11.2017 00:00:00 9,0 1,9 3 2 7 4 NE 1023,0 0,0
19.11.2017 23:00:00 9,4 2,5 1 1 3 2 ENE 1023,0 0,0
19.11.2017 22:00:00 9,9 1,7 0 0 3 1 N 1022,5 0,0
19.11.2017 21:00:00 10,3 1,5 1 0 2 1 W 1022,0 0,0
19.11.2017 20:00:00 11,0 1,3 0 0 2 1 N 1021,6 0,0
19.11.2017 19:00:00 11,7 1,3 0 0 3 1 SSW 1021,0 -
19.11.2017 18:00:00 13,2 2,5 0 0 4 2 S 1020,2 0,0
19.11.2017 17:00:00 15,0 3,2 2 1 6 4 SW 1019,4 0,0
19.11.2017 16:00:00 15,9 3,4 3 2 8 4 WSW 1019,1 0,0
19.11.2017 15:00:00 15,4 3,2 1 1 9 5 W 1019,4 0,0
19.11.2017 14:00:00 14,6 2,9 2 1 10 5 S 1020,1 0,0
19.11.2017 13:00:00 13,1 2,7 0 0 6 4 SSW 1021,3 -
19.11.2017 12:00:00 11,9 2,3 0 0 4 2 NNE 1022,0 0,0
19.11.2017 11:00:00 10,0 1,3 3 2 10 6 E 1022,5 0,0
19.11.2017 10:00:00 8,1 0,9 5 3 10 5 NE 1022,9 0,0
19.11.2017 09:00:00 5,5 0,0 0 0 4 2 E 1023,1 0,0
19.11.2017 08:00:00 5,2 -0,7 0 0 9 5 NE 1022,9 0,0
19.11.2017 07:00:00 6,5 -0,3 2 1 11 6 NE 1022,0 -
19.11.2017 06:00:00 7,9 0,0 5 3 18 10 NE 1021,2 0,0
19.11.2017 05:00:00 8,1 0,9 6 3 18 10 NE 1020,8 0,0
19.11.2017 04:00:00 8,2 0,9 3 2 10 6 NNE 1020,8 0,0
19.11.2017 03:00:00 8,3 1,3 1 1 9 5 NE 1020,8 0,0
19.11.2017 02:00:00 8,3 1,1 0 0 3 1 WNW 1020,7 0,0
19.11.2017 01:00:00 10,5 1,5 1 1 14 7 NE 1020,5 -
19.11.2017 00:00:00 11,2 1,9 5 3 14 8 NE 1020,0 0,0
18.11.2017 23:00:00 10,3 1,9 3 2 10 5 NNE 1020,3 0,0
18.11.2017 22:00:00 12,0 2,5 3 2 11 6 NE 1019,6 0,0
18.11.2017 21:00:00 12,0 2,5 1 0 4 2 ENE 1019,3 0,0
18.11.2017 20:00:00 12,4 2,5 2 1 4 2 NW 1018,8 0,0
18.11.2017 19:00:00 13,6 1,9 1 1 4 2 N 1018,0 -
18.11.2017 18:00:00 15,0 2,9 0 0 5 3 ENE 1017,5 0,0
18.11.2017 17:00:00 17,5 3,4 1 1 7 4 ESE 1016,5 0,0
18.11.2017 16:00:00 18,0 3,8 2 1 10 5 ENE 1016,3 0,0
18.11.2017 15:00:00 17,9 4,1 3 1 11 6 ESE 1016,6 0,0
18.11.2017 14:00:00 17,6 4,5 4 2 17 9 ENE 1017,3 0,0
18.11.2017 13:00:00 16,3 4,3 7 4 17 9 E 1018,0 -
18.11.2017 12:00:00 14,8 3,9 7 4 21 12 NE 1019,0 0,0
18.11.2017 11:00:00 13,0 3,4 6 3 20 11 NE 1019,8 0,0
18.11.2017 10:00:00 9,9 2,3 4 2 12 6 NE 1020,3 0,0
18.11.2017 09:00:00 7,8 1,5 2 1 11 6 ENE 1020,8 0,0
18.11.2017 08:00:00 8,4 1,1 6 3 16 9 NE 1020,2 0,0
18.11.2017 07:00:00 8,3 1,5 3 2 11 6 NE 1019,9 -
18.11.2017 06:00:00 7,9 1,5 1 1 9 5 NE 1019,8 0,0
18.11.2017 05:00:00 8,6 1,7 2 1 13 7 NE 1019,7 0,0
18.11.2017 04:00:00 9,1 1,7 3 2 10 5 NNE 1019,8 0,0
18.11.2017 03:00:00 9,7 1,5 4 2 13 7 NE 1019,6 0,0
18.11.2017 02:00:00 10,4 2,1 4 2 12 7 NE 1019,7 0,0
18.11.2017 01:00:00 11,2 1,9 4 2 11 6 NE 1019,5 -
18.11.2017 00:00:00 10,9 2,7 4 2 8 4 NE 1019,6 0,0
17.11.2017 23:00:00 10,4 2,5 2 1 4 2 ESE 1019,9 0,0
17.11.2017 22:00:00 11,4 1,7 1 0 3 1 ENE 1019,4 0,0
17.11.2017 21:00:00 11,3 1,5 2 1 5 3 WNW 1019,1 0,0
17.11.2017 20:00:00 12,4 2,3 2 1 6 3 WNW 1018,3 0,0
17.11.2017 19:00:00 12,3 1,9 3 2 5 3 WNW 1018,0 -
17.11.2017 18:00:00 13,8 2,3 1 0 2 1 SW 1017,7 0,0
17.11.2017 17:00:00 16,0 3,0 0 0 5 3 SW 1017,1 0,0
17.11.2017 16:00:00 16,5 3,2 1 0 6 3 SW 1017,1 0,0
17.11.2017 15:00:00 16,7 3,4 2 1 8 4 SSW 1017,4 0,0
17.11.2017 14:00:00 15,7 3,4 2 1 8 4 SW 1018,5 0,0
17.11.2017 13:00:00 14,4 2,9 3 1 9 5 SSW 1019,3 -
17.11.2017 12:00:00 13,0 3,0 2 1 5 3 SSW 1020,4 0,0
17.11.2017 11:00:00 10,9 2,5 1 1 6 4 NE 1021,1 0,0
17.11.2017 10:00:00 9,2 1,9 3 2 6 3 NE 1021,4 0,0
17.11.2017 09:00:00 6,8 1,1 1 1 4 2 ENE 1021,8 0,0
17.11.2017 08:00:00 5,9 0,6 0 0 4 2 ENE 1021,5 0,0
17.11.2017 07:00:00 6,3 0,6 1 1 4 2 E 1021,1 -
17.11.2017 06:00:00 6,5 0,6 1 1 8 5 NNE 1021,1 0,0
17.11.2017 05:00:00 7,1 0,9 0 0 3 2 E 1020,8 0,0
17.11.2017 04:00:00 7,5 0,9 0 0 6 3 ENE 1020,8 0,0
17.11.2017 03:00:00 8,5 0,9 2 1 8 5 NNE 1020,6 0,0
17.11.2017 02:00:00 7,8 1,1 1 1 5 3 NE 1021,0 0,0
17.11.2017 01:00:00 8,7 1,3 1 0 7 4 NE 1021,0 -
17.11.2017 00:00:00 9,4 1,1 2 1 7 4 NE 1020,8 0,0
16.11.2017 23:00:00 11,0 1,3 4 2 9 5 ENE 1020,3 0,0
16.11.2017 22:00:00 10,7 0,6 0 0 1 1 N 1020,1 0,0
16.11.2017 21:00:00 11,4 0,9 1 1 9 5 NNW 1019,5 0,0
16.11.2017 20:00:00 12,0 1,1 3 2 8 5 NW 1019,0 0,0
16.11.2017 19:00:00 12,6 1,3 4 2 7 4 NW 1018,5 -
16.11.2017 18:00:00 13,8 2,1 3 2 6 3 WNW 1017,8 0,0
16.11.2017 17:00:00 16,1 2,9 2 1 6 4 W 1017,1 0,0
16.11.2017 16:00:00 16,7 3,0 0 0 8 4 W 1017,0 0,0
16.11.2017 15:00:00 15,9 2,7 1 1 9 5 SW 1017,6 0,0
16.11.2017 14:00:00 14,9 2,7 2 1 8 5 SW 1018,4 0,0
16.11.2017 13:00:00 12,5 2,1 1 1 6 4 WSW 1019,4 -
16.11.2017 12:00:00 11,0 2,1 2 1 8 4 S 1020,5 0,0
16.11.2017 11:00:00 9,3 1,7 1 0 6 3 ESE 1021,1 0,0
16.11.2017 10:00:00 6,9 0,9 2 1 6 3 E 1021,4 0,0
16.11.2017 09:00:00 4,3 0,4 1 0 2 1 E 1021,7 0,0
16.11.2017 08:00:00 3,5 -0,3 0 0 1 1 N 1021,4 0,0
16.11.2017 07:00:00 3,9 -0,5 0 0 3 1 N 1020,5 -
16.11.2017 06:00:00 4,4 -0,3 1 0 3 2 ENE 1020,2 0,0
16.11.2017 05:00:00 4,7 -0,3 0 0 3 2 NNE 1019,9 0,0
16.11.2017 04:00:00 5,1 -0,3 0 0 3 2 E 1020,1 0,0
16.11.2017 03:00:00 5,8 -0,5 1 0 5 3 E 1020,2 0,0
16.11.2017 02:00:00 6,1 -0,7 1 1 9 5 NE 1020,1 0,0
16.11.2017 01:00:00 6,8 -0,7 1 1 5 3 ENE 1020,1 -
16.11.2017 00:00:00 7,0 -0,5 1 1 5 3 NE 1019,8 0,0
15.11.2017 23:00:00 8,2 0,2 1 1 3 2 ENE 1019,4 0,0
15.11.2017 22:00:00 8,0 -1,0 0 0 0 0 N 1019,5 0,0
15.11.2017 21:00:00 8,5 -1,0 0 0 1 1 SSW 1019,2 0,0
15.11.2017 20:00:00 9,2 -1,2 0 0 2 1 SE 1019,1 0,0
15.11.2017 19:00:00 10,1 -1,2 0 0 7 4 SSW 1018,3 -
15.11.2017 18:00:00 11,1 -0,7 3 1 6 4 SW 1017,5 0,0
15.11.2017 17:00:00 12,9 -0,5 2 1 10 5 SW 1017,4 0,0
15.11.2017 16:00:00 13,6 -0,5 1 0 10 5 S 1017,2 0,0
15.11.2017 15:00:00 13,3 -0,7 3 2 12 6 SW 1017,7 0,0
15.11.2017 14:00:00 12,6 -1,0 3 2 9 5 S 1018,2 0,0
15.11.2017 13:00:00 11,1 -1,7 0 0 7 4 S 1019,4 -
15.11.2017 12:00:00 10,2 -1,2 3 1 8 4 E 1020,4 0,0
15.11.2017 11:00:00 8,5 -2,0 2 1 5 3 ENE 1021,2 0,0
15.11.2017 10:00:00 6,6 -1,4 4 2 8 4 E 1021,4 0,0
15.11.2017 09:00:00 4,8 -2,0 1 1 8 4 E 1021,9 0,0
15.11.2017 08:00:00 4,9 -2,2 3 2 11 6 NE 1021,5 0,0
15.11.2017 07:00:00 5,2 -1,7 3 2 13 7 NE 1021,1 -
15.11.2017 06:00:00 5,5 -1,7 4 2 10 5 NE 1020,8 0,0
15.11.2017 05:00:00 5,1 -1,4 1 1 4 2 ENE 1020,6 0,0
15.11.2017 04:00:00 5,1 -1,7 2 1 10 6 NNE 1020,9 0,0
15.11.2017 03:00:00 6,5 -1,4 4 2 10 5 NE 1020,6 0,0
15.11.2017 02:00:00 7,1 -1,2 3 2 10 5 ENE 1020,2 0,0
15.11.2017 01:00:00 7,2 -1,0 1 1 10 5 ENE 1020,5 -
15.11.2017 00:00:00 7,7 -0,5 1 1 7 4 NE 1019,9 0,0
14.11.2017 23:00:00 8,9 0,4 3 2 11 6 ENE 1019,5 0,0
14.11.2017 22:00:00 8,6 0,0 1 0 7 4 NNW 1018,9 0,0

tt = temperature
td = dewpoint
ff = wind speed
fx = gusts
dd = wind direction
ppp = reduced air pressure
rr = precipitation

Next stations